createdAt,value
2023-05-24T00:00:01.009Z,2.33
2023-05-24T00:02:30.181Z,2.05
2023-05-24T00:05:01.522Z,2.47
2023-05-24T00:07:31.803Z,2.15
2023-05-24T00:09:58.483Z,2.08
2023-05-24T00:12:25.922Z,2.47
2023-05-24T00:14:52.682Z,2.42
2023-05-24T00:17:19.379Z,2.20
2023-05-24T00:19:46.096Z,2.17
2023-05-24T00:22:14.231Z,1.95
2023-05-24T00:24:41.086Z,2.15
2023-05-24T00:27:08.367Z,3.17
2023-05-24T00:29:37.340Z,2.28
2023-05-24T00:32:04.383Z,2.47
2023-05-24T00:34:31.335Z,2.60
2023-05-24T00:36:58.850Z,2.65
2023-05-24T00:39:25.591Z,2.30
2023-05-24T00:41:52.457Z,2.78
2023-05-24T00:44:19.219Z,2.78
2023-05-24T00:46:46.285Z,2.42
2023-05-24T00:49:13.476Z,2.40
2023-05-24T00:51:41.033Z,3.00
2023-05-24T00:54:08.044Z,2.55
2023-05-24T00:56:35.670Z,2.80
2023-05-24T00:59:02.770Z,3.63
2023-05-24T01:01:34.875Z,2.63
2023-05-24T01:04:02.625Z,2.20
2023-05-24T01:06:29.875Z,2.45
2023-05-24T01:09:10.418Z,2.80
2023-05-24T01:11:55.672Z,2.13
2023-05-24T01:14:37.695Z,2.60
2023-05-24T01:17:06.979Z,2.42
2023-05-24T01:19:49.064Z,2.88
2023-05-24T01:22:40.948Z,2.70
2023-05-24T01:25:11.760Z,2.80
2023-05-24T01:27:39.004Z,2.67
2023-05-24T01:30:07.292Z,3.35
2023-05-24T01:32:34.604Z,2.85
2023-05-24T01:35:01.421Z,2.70
2023-05-24T01:37:28.067Z,2.78
2023-05-24T01:40:00.177Z,2.67
2023-05-24T01:42:37.110Z,3.05
2023-05-24T01:45:41.436Z,3.45
2023-05-24T01:48:22.092Z,2.65
2023-05-24T01:50:55.339Z,2.67
2023-05-24T01:53:26.414Z,2.70
2023-05-24T01:55:58.992Z,2.80
2023-05-24T01:58:27.222Z,2.95
2023-05-24T02:00:54.625Z,2.88
2023-05-24T02:03:21.831Z,3.10
2023-05-24T02:05:49.165Z,3.45
2023-05-24T02:08:16.037Z,3.00
2023-05-24T02:10:42.977Z,3.03
2023-05-24T02:13:09.965Z,2.90
2023-05-24T02:15:36.898Z,2.70
2023-05-24T02:18:04.301Z,3.00
2023-05-24T02:20:31.735Z,3.17
2023-05-24T02:22:58.687Z,3.13
2023-05-24T02:25:25.738Z,3.03
2023-05-24T02:27:52.780Z,3.17
2023-05-24T02:30:19.792Z,3.30
2023-05-24T02:32:47.064Z,3.70
2023-05-24T02:35:14.056Z,3.20
2023-05-24T02:37:41.004Z,3.55
2023-05-24T02:40:08.504Z,3.13
2023-05-24T02:42:36.437Z,3.80
2023-05-24T02:45:03.640Z,3.63
2023-05-24T02:47:32.702Z,3.00
2023-05-24T02:49:59.511Z,3.58
2023-05-24T02:52:27.012Z,3.45
2023-05-24T02:54:54.250Z,3.72
2023-05-24T02:57:23.554Z,3.45
2023-05-24T02:59:50.432Z,3.90
2023-05-24T03:02:19.982Z,4.05
2023-05-24T03:04:46.852Z,3.60
2023-05-24T03:07:22.136Z,4.00
2023-05-24T03:09:48.903Z,4.13
2023-05-24T03:12:18.299Z,3.88
2023-05-24T03:14:47.501Z,4.47
2023-05-24T03:17:14.438Z,4.78
2023-05-24T03:19:42.156Z,4.03
2023-05-24T03:22:08.899Z,4.70
2023-05-24T03:24:35.567Z,3.75
2023-05-24T03:27:04.747Z,3.78
2023-05-24T03:29:31.746Z,4.38
2023-05-24T03:31:58.536Z,4.18
2023-05-24T03:34:25.586Z,3.95
2023-05-24T03:36:52.321Z,4.75
2023-05-24T03:39:19.094Z,4.50
2023-05-24T03:41:45.940Z,4.82
2023-05-24T03:44:13.663Z,4.47
2023-05-24T03:46:40.832Z,4.50
2023-05-24T03:49:08.064Z,3.80
2023-05-24T03:51:35.031Z,4.65
2023-05-24T03:54:02.122Z,5.05
2023-05-24T03:56:29.481Z,4.63
2023-05-24T03:59:00.614Z,4.07
2023-05-24T04:01:33.867Z,4.63
2023-05-24T04:04:01.756Z,4.78
2023-05-24T04:06:31.753Z,3.97
2023-05-24T04:08:59.949Z,4.47
2023-05-24T04:11:30.105Z,4.35
2023-05-24T04:13:58.363Z,4.35
2023-05-24T04:16:27.807Z,4.25
2023-05-24T04:18:55.382Z,4.45
2023-05-24T04:21:24.869Z,4.32
2023-05-24T04:23:51.585Z,4.90
2023-05-24T04:26:25.515Z,4.35
2023-05-24T04:28:52.640Z,4.25
2023-05-24T04:31:20.698Z,4.45
2023-05-24T04:33:48.212Z,5.25
2023-05-24T04:36:15.171Z,4.95
2023-05-24T04:38:42.060Z,4.38
2023-05-24T04:41:10.582Z,4.97
2023-05-24T04:43:37.386Z,4.93
2023-05-24T04:46:05.381Z,4.57
2023-05-24T04:48:36.035Z,5.95
2023-05-24T04:51:05.319Z,4.57
2023-05-24T04:53:34.324Z,4.78
2023-05-24T04:56:01.075Z,4.80
2023-05-24T04:58:30.356Z,5.28
2023-05-24T05:00:57.308Z,5.05
2023-05-24T05:03:24.155Z,5.03
2023-05-24T05:05:52.253Z,4.60
2023-05-24T05:08:20.570Z,4.05
2023-05-24T05:10:48.354Z,5.55
2023-05-24T05:13:15.086Z,4.38
2023-05-24T05:15:42.967Z,4.18
2023-05-24T05:18:10.444Z,3.92
2023-05-24T05:20:37.561Z,4.40
2023-05-24T05:23:04.824Z,4.53
2023-05-24T05:25:31.777Z,3.67
2023-05-24T05:28:01.090Z,4.55
2023-05-24T05:30:27.996Z,3.75
2023-05-24T05:32:54.807Z,3.95
2023-05-24T05:35:21.933Z,4.57
2023-05-24T05:37:48.839Z,4.03
2023-05-24T05:40:15.806Z,3.47
2023-05-24T05:42:44.901Z,4.53
2023-05-24T05:45:12.021Z,4.10
2023-05-24T05:47:38.885Z,4.15
2023-05-24T05:50:06.121Z,4.50
2023-05-24T05:52:33.630Z,4.47
2023-05-24T05:55:01.072Z,4.40
2023-05-24T05:57:27.802Z,4.93
2023-05-24T05:59:57.016Z,3.90
2023-05-24T06:02:26.131Z,4.65
2023-05-24T06:04:53.139Z,4.53
2023-05-24T06:07:20.197Z,4.30
2023-05-24T06:09:46.916Z,4.50
2023-05-24T06:12:13.842Z,5.28
2023-05-24T06:14:40.565Z,4.15
2023-05-24T06:17:07.512Z,4.78
2023-05-24T06:19:34.348Z,4.50
2023-05-24T06:22:01.756Z,4.82
2023-05-24T06:24:28.884Z,4.85
2023-05-24T06:26:55.979Z,4.35
2023-05-24T06:29:23.068Z,4.90
2023-05-24T06:31:50.568Z,4.47
2023-05-24T06:34:21.721Z,5.20
2023-05-24T06:36:53.184Z,4.80
2023-05-24T06:39:22.702Z,4.45
2023-05-24T06:41:51.391Z,5.63
2023-05-24T06:44:18.315Z,4.60
2023-05-24T06:46:45.392Z,4.90
2023-05-24T06:49:16.345Z,5.00
2023-05-24T06:51:43.292Z,4.93
2023-05-24T06:54:10.153Z,4.38
2023-05-24T06:56:36.927Z,4.68
2023-05-24T06:59:03.680Z,4.20
2023-05-24T07:01:30.646Z,3.97
2023-05-24T07:03:58.100Z,4.00
2023-05-24T07:06:25.234Z,4.78
2023-05-24T07:08:51.955Z,3.90
2023-05-24T07:11:18.966Z,5.07
2023-05-24T07:13:45.732Z,4.00
2023-05-24T07:16:12.452Z,3.70
2023-05-24T07:18:41.927Z,4.28
2023-05-24T07:21:08.910Z,4.00
2023-05-24T07:23:37.082Z,4.05
2023-05-24T07:26:04.902Z,4.15
2023-05-24T07:28:33.013Z,4.03
2023-05-24T07:31:00.416Z,3.53
2023-05-24T07:33:27.139Z,3.72
2023-05-24T07:35:53.874Z,3.78
2023-05-24T07:38:21.339Z,3.40
2023-05-24T07:40:48.498Z,4.18
2023-05-24T07:43:15.964Z,3.97
2023-05-24T07:45:42.765Z,4.07
2023-05-24T07:48:11.921Z,4.07
2023-05-24T07:50:39.128Z,3.90
2023-05-24T07:53:06.469Z,3.30
2023-05-24T07:55:33.863Z,3.65
2023-05-24T07:58:02.932Z,4.22
2023-05-24T08:00:30.083Z,2.90
2023-05-24T08:02:57.509Z,2.90
2023-05-24T08:05:24.788Z,3.40
2023-05-24T08:07:54.706Z,3.10
2023-05-24T08:10:22.175Z,4.07
2023-05-24T08:12:51.618Z,3.72
2023-05-24T08:15:18.356Z,3.20
2023-05-24T08:17:45.146Z,3.45
2023-05-24T08:20:14.682Z,3.35
2023-05-24T08:22:42.783Z,3.38
2023-05-24T08:25:11.389Z,3.40
2023-05-24T08:27:38.634Z,3.33
2023-05-24T08:30:08.713Z,3.08
2023-05-24T08:32:38.538Z,3.00
2023-05-24T08:35:18.661Z,3.80
2023-05-24T08:37:48.334Z,3.25
2023-05-24T08:40:17.753Z,3.22
2023-05-24T08:42:46.462Z,2.70
2023-05-24T08:45:15.956Z,2.95
2023-05-24T08:47:43.412Z,3.25
2023-05-24T08:50:11.122Z,2.80
2023-05-24T08:52:39.934Z,4.10
2023-05-24T08:55:07.875Z,2.45
2023-05-24T08:57:39.588Z,3.10
2023-05-24T09:00:11.911Z,2.83
2023-05-24T09:02:40.266Z,3.13
2023-05-24T09:05:11.163Z,3.17
2023-05-24T09:07:41.989Z,2.60
2023-05-24T09:10:10.414Z,2.67
2023-05-24T09:12:39.464Z,3.70
2023-05-24T09:15:08.420Z,2.97
2023-05-24T09:17:37.045Z,3.38
2023-05-24T09:20:07.224Z,3.28
2023-05-24T09:22:36.790Z,3.30
2023-05-24T09:25:06.358Z,2.60
2023-05-24T09:27:36.373Z,2.80
2023-05-24T09:30:06.851Z,2.58
2023-05-24T09:32:33.748Z,2.80
2023-05-24T09:35:00.918Z,2.97
2023-05-24T09:37:32.903Z,2.72
2023-05-24T09:40:00.422Z,2.70
2023-05-24T09:42:28.899Z,2.90
2023-05-24T09:45:09.530Z,2.75
2023-05-24T09:47:38.238Z,3.05
2023-05-24T09:50:07.318Z,2.85
2023-05-24T09:52:38.222Z,3.08
2023-05-24T09:55:20.880Z,2.95
2023-05-24T09:57:53.486Z,2.95
2023-05-24T10:00:24.270Z,2.65
2023-05-24T10:03:05.433Z,3.28
2023-05-24T10:05:32.436Z,2.67
2023-05-24T10:08:00.352Z,2.72
2023-05-24T10:10:32.014Z,2.70
2023-05-24T10:13:00.675Z,2.60
2023-05-24T10:15:28.151Z,2.55
2023-05-24T10:18:00.762Z,2.50
2023-05-24T10:20:28.477Z,2.75
2023-05-24T10:23:03.674Z,2.58
2023-05-24T10:25:33.686Z,2.80
2023-05-24T10:28:09.119Z,2.47
2023-05-24T10:30:59.225Z,2.50
2023-05-24T10:33:26.764Z,2.95
2023-05-24T10:35:57.244Z,3.28
2023-05-24T10:38:27.307Z,2.95
2023-05-24T10:40:54.234Z,3.00
2023-05-24T10:43:22.082Z,2.30
2023-05-24T10:45:52.471Z,3.08
2023-05-24T10:48:28.410Z,2.40
2023-05-24T10:50:55.758Z,2.55
2023-05-24T10:53:27.495Z,2.30
2023-05-24T10:56:08.859Z,2.33
2023-05-24T10:58:49.240Z,2.60
2023-05-24T11:01:33.813Z,2.50
2023-05-24T11:04:11.375Z,2.80
2023-05-24T11:06:55.820Z,2.83
2023-05-24T11:09:23.103Z,2.75
2023-05-24T11:11:55.791Z,2.58
2023-05-24T11:14:29.762Z,2.38
2023-05-24T11:17:02.368Z,1.98
2023-05-24T11:19:36.800Z,2.78
2023-05-24T11:22:07.919Z,2.47
2023-05-24T11:24:35.525Z,2.47
2023-05-24T11:27:02.851Z,2.10
2023-05-24T11:29:30.737Z,2.40
2023-05-24T11:32:08.050Z,2.30
2023-05-24T11:34:38.017Z,2.58
2023-05-24T11:37:08.161Z,2.63
2023-05-24T11:39:38.315Z,2.47
2023-05-24T11:42:06.631Z,2.53
2023-05-24T11:44:34.442Z,3.20
2023-05-24T11:47:03.204Z,2.97
2023-05-24T11:49:35.018Z,2.72
2023-05-24T11:52:04.412Z,2.58
2023-05-24T11:54:35.552Z,3.03
2023-05-24T11:57:05.678Z,2.75
2023-05-24T11:59:38.502Z,2.90
2023-05-24T12:02:06.844Z,2.42
2023-05-24T12:04:34.781Z,2.08
2023-05-24T12:07:02.480Z,3.10
2023-05-24T12:09:29.638Z,2.35
2023-05-24T12:11:58.546Z,2.22
2023-05-24T12:14:29.006Z,2.75
2023-05-24T12:16:57.301Z,3.00
2023-05-24T12:21:59.970Z,2.50
2023-05-24T12:24:28.388Z,2.67
2023-05-24T12:27:08.334Z,2.47
2023-05-24T12:29:40.944Z,3.08
2023-05-24T12:32:13.632Z,2.40
2023-05-24T12:34:42.615Z,2.33
2023-05-24T12:37:11.201Z,3.38
2023-05-24T12:39:38.463Z,2.92
2023-05-24T12:42:06.012Z,2.80
2023-05-24T12:44:34.808Z,2.45
2023-05-24T12:47:03.784Z,2.85
2023-05-24T12:49:31.791Z,2.50
2023-05-24T12:51:59.433Z,2.20
2023-05-24T12:54:27.828Z,2.80
2023-05-24T12:56:57.557Z,2.83
2023-05-24T12:59:26.056Z,2.17
2023-05-24T13:01:55.288Z,2.90
2023-05-24T13:04:24.529Z,2.88
2023-05-24T13:06:51.294Z,2.80
2023-05-24T13:09:22.586Z,2.40
2023-05-24T13:11:49.829Z,3.30
2023-05-24T13:14:17.085Z,2.63
2023-05-24T13:16:44.401Z,2.72
2023-05-24T13:19:12.094Z,2.65
2023-05-24T13:21:39.243Z,2.45
2023-05-24T13:24:06.801Z,2.25
2023-05-24T13:26:38.153Z,2.40
2023-05-24T13:29:32.129Z,2.42
2023-05-24T13:31:55.345Z,2.50
2023-05-24T13:34:25.802Z,2.58
2023-05-24T13:36:55.385Z,2.50
2023-05-24T13:39:22.535Z,3.00
2023-05-24T13:41:49.911Z,2.80
2023-05-24T13:44:16.983Z,2.85
2023-05-24T13:46:44.792Z,2.50
2023-05-24T13:49:12.308Z,2.80
2023-05-24T13:51:39.237Z,2.72
2023-05-24T13:54:07.719Z,2.78
2023-05-24T13:56:35.046Z,3.05
2023-05-24T13:59:08.805Z,3.05
2023-05-24T14:01:37.906Z,2.33
2023-05-24T14:04:06.110Z,2.65
2023-05-24T14:06:34.087Z,2.03
2023-05-24T14:09:01.214Z,2.80
2023-05-24T14:11:31.521Z,2.60
2023-05-24T14:16:29.149Z,2.67
2023-05-24T14:18:56.071Z,2.67
2023-05-24T14:21:23.518Z,2.72
2023-05-24T14:23:53.208Z,2.15
2023-05-24T14:26:23.845Z,2.15
2023-05-24T14:28:52.267Z,2.35
2023-05-24T14:31:23.152Z,2.72
2023-05-24T14:33:52.941Z,2.53
2023-05-24T14:36:19.975Z,3.45
2023-05-24T14:38:47.032Z,2.08
2023-05-24T14:41:13.808Z,2.33
2023-05-24T14:43:41.363Z,2.42
2023-05-24T14:46:10.651Z,2.13
2023-05-24T14:48:41.667Z,2.72
2023-05-24T14:51:08.718Z,2.08
2023-05-24T14:53:37.661Z,2.40
2023-05-24T14:56:06.320Z,2.55
2023-05-24T14:58:33.427Z,2.63
2023-05-24T15:01:00.223Z,2.60
2023-05-24T15:03:27.024Z,2.35
2023-05-24T15:05:54.015Z,1.80
2023-05-24T15:08:21.072Z,1.63
2023-05-24T15:10:48.767Z,2.00
2023-05-24T15:13:18.068Z,1.77
2023-05-24T15:15:45.094Z,2.60
2023-05-24T15:18:14.647Z,2.35
2023-05-24T15:20:41.948Z,2.40
2023-05-24T15:23:10.821Z,2.70
2023-05-24T15:25:38.193Z,2.28
2023-05-24T15:28:05.027Z,2.50
2023-05-24T15:30:32.254Z,2.75
2023-05-24T15:32:59.260Z,2.10
2023-05-24T15:35:31.587Z,2.30
2023-05-24T15:37:58.527Z,2.20
2023-05-24T15:40:25.468Z,2.30
2023-05-24T15:42:53.353Z,2.85
2023-05-24T15:45:20.304Z,2.25
2023-05-24T15:47:47.329Z,2.53
2023-05-24T15:50:14.723Z,3.05
2023-05-24T15:52:41.601Z,2.60
2023-05-24T15:55:09.127Z,2.55
2023-05-24T15:57:35.888Z,2.78
2023-05-24T16:00:05.456Z,2.70
2023-05-24T16:02:32.665Z,2.72
2023-05-24T16:05:01.671Z,2.63
2023-05-24T16:07:28.516Z,2.75
2023-05-24T16:09:55.197Z,2.80
2023-05-24T16:12:22.127Z,2.50
2023-05-24T16:14:48.799Z,2.85
2023-05-24T16:17:18.147Z,3.13
2023-05-24T16:19:49.558Z,2.55
2023-05-24T16:22:18.603Z,2.45
2023-05-24T16:24:45.437Z,2.90
2023-05-24T16:27:12.365Z,2.80
2023-05-24T16:29:39.371Z,3.75
2023-05-24T16:32:07.623Z,3.15
2023-05-24T16:34:44.869Z,2.42
2023-05-24T16:37:23.820Z,3.67
2023-05-24T16:39:50.695Z,2.72
2023-05-24T16:42:17.470Z,2.42
2023-05-24T16:44:44.359Z,2.78
2023-05-24T16:47:11.268Z,2.38
2023-05-24T16:49:38.033Z,2.28
2023-05-24T16:52:05.008Z,2.58
2023-05-24T16:54:31.841Z,2.38
2023-05-24T16:57:01.599Z,2.90
2023-05-24T16:59:31.036Z,2.67
2023-05-24T17:02:00.872Z,2.20
2023-05-24T17:04:27.710Z,2.70
2023-05-24T17:06:54.446Z,2.17
2023-05-24T17:09:21.542Z,2.90
2023-05-24T17:11:51.155Z,2.58
2023-05-24T17:14:17.877Z,2.40
2023-05-24T17:16:46.883Z,2.47
2023-05-24T17:19:14.102Z,3.72
2023-05-24T17:21:41.456Z,2.20
2023-05-24T17:24:08.229Z,2.10
2023-05-24T17:26:38.008Z,2.42
2023-05-24T17:29:04.792Z,2.85
2023-05-24T17:31:33.076Z,3.10
2023-05-24T17:34:01.095Z,2.60
2023-05-24T17:36:27.900Z,3.13
2023-05-24T17:38:54.479Z,2.92
2023-05-24T17:41:21.442Z,3.20
2023-05-24T17:43:48.198Z,3.13
2023-05-24T17:46:15.595Z,2.85
2023-05-24T17:48:43.554Z,2.60
2023-05-24T17:51:11.108Z,2.67
2023-05-24T17:53:38.614Z,2.72
2023-05-24T17:56:06.584Z,2.90
2023-05-24T17:58:37.155Z,3.42
2023-05-24T18:01:05.903Z,3.65
2023-05-24T18:03:34.130Z,2.60
2023-05-24T18:06:01.900Z,2.63
2023-05-24T18:08:28.710Z,2.70
2023-05-24T18:10:58.775Z,2.00
2023-05-24T18:13:26.045Z,2.88
2023-05-24T18:15:52.786Z,2.45
2023-05-24T18:18:22.208Z,2.70
2023-05-24T18:20:48.920Z,2.63
2023-05-24T18:23:16.020Z,2.78
2023-05-24T18:25:45.042Z,2.42
2023-05-24T18:28:12.686Z,2.72
2023-05-24T18:30:39.530Z,2.30
2023-05-24T18:33:08.480Z,2.75
2023-05-24T18:35:35.842Z,2.70
2023-05-24T18:38:03.468Z,2.55
2023-05-24T18:40:30.630Z,2.40
2023-05-24T18:42:58.479Z,2.20
2023-05-24T18:45:25.119Z,2.78
2023-05-24T18:47:52.833Z,2.58
2023-05-24T18:50:23.425Z,2.47
2023-05-24T18:52:50.647Z,2.55
2023-05-24T18:55:17.585Z,2.20
2023-05-24T18:57:44.497Z,2.65
2023-05-24T19:00:12.120Z,2.45
2023-05-24T19:02:39.804Z,2.17
2023-05-24T19:05:10.164Z,2.33
2023-05-24T19:07:37.459Z,2.25
2023-05-24T19:10:05.228Z,2.70
2023-05-24T19:12:34.996Z,2.55
2023-05-24T19:15:04.129Z,2.60
2023-05-24T19:17:38.843Z,2.60
2023-05-24T19:20:07.542Z,3.92
2023-05-24T19:22:34.922Z,3.88
2023-05-24T19:25:01.656Z,3.30
2023-05-24T19:27:31.250Z,2.90
2023-05-24T19:30:00.384Z,2.92
2023-05-24T19:32:29.865Z,3.08
2023-05-24T19:34:57.257Z,3.08
2023-05-24T19:37:24.073Z,3.05
2023-05-24T19:39:51.812Z,2.63
2023-05-24T19:42:18.753Z,2.80
2023-05-24T19:44:48.366Z,2.85
2023-05-24T19:47:15.397Z,2.78
2023-05-24T19:49:43.473Z,3.03
2023-05-24T19:52:10.440Z,2.90
2023-05-24T19:54:37.391Z,3.33
2023-05-24T19:57:06.505Z,3.00
2023-05-24T19:59:35.984Z,3.63
2023-05-24T20:02:03.096Z,3.22
2023-05-24T20:04:30.082Z,3.05
2023-05-24T20:06:59.800Z,2.90
2023-05-24T20:09:29.012Z,2.55
2023-05-24T20:11:58.836Z,3.58
2023-05-24T20:14:25.709Z,3.85
2023-05-24T20:16:52.795Z,3.42
2023-05-24T20:19:21.655Z,4.68
2023-05-24T20:21:48.847Z,3.10
2023-05-24T20:24:18.158Z,4.30
2023-05-24T20:26:45.117Z,3.22
2023-05-24T20:29:14.614Z,3.53
2023-05-24T20:31:41.668Z,3.40
2023-05-24T20:34:08.647Z,4.13
2023-05-24T20:36:38.237Z,3.60
2023-05-24T20:39:04.968Z,3.53
2023-05-24T20:41:32.756Z,4.05
2023-05-24T20:43:59.699Z,3.78
2023-05-24T20:46:26.875Z,3.20
2023-05-24T20:48:54.058Z,3.75
2023-05-24T20:51:23.133Z,3.50
2023-05-24T20:53:52.300Z,4.28
2023-05-24T20:56:20.670Z,3.35
2023-05-24T20:58:49.260Z,3.50
2023-05-24T21:01:16.826Z,3.60
2023-05-24T21:03:43.843Z,4.13
2023-05-24T21:06:12.955Z,3.97
2023-05-24T21:08:39.697Z,4.10
2023-05-24T21:11:06.897Z,3.92
2023-05-24T21:13:34.114Z,4.43
2023-05-24T21:16:02.625Z,3.65
2023-05-24T21:18:29.313Z,4.43
2023-05-24T21:20:56.334Z,3.53
2023-05-24T21:23:23.209Z,3.97
2023-05-24T21:25:50.176Z,4.20
2023-05-24T21:28:17.010Z,4.82
2023-05-24T21:30:44.226Z,4.43
2023-05-24T21:33:13.634Z,3.78
2023-05-24T21:35:40.648Z,3.75
2023-05-24T21:38:07.633Z,4.57
2023-05-24T21:40:34.459Z,4.20
2023-05-24T21:43:01.424Z,4.70
2023-05-24T21:45:28.470Z,4.38
2023-05-24T21:47:55.211Z,4.68
2023-05-24T21:50:22.186Z,4.28
2023-05-24T21:52:49.139Z,4.40
2023-05-24T21:55:15.962Z,4.32
2023-05-24T21:57:45.445Z,4.28
2023-05-24T22:00:13.925Z,3.80
2023-05-24T22:02:40.820Z,3.17
2023-05-24T22:05:08.256Z,3.78
2023-05-24T22:07:37.224Z,4.20
2023-05-24T22:10:05.247Z,4.35
2023-05-24T22:12:35.116Z,3.97
2023-05-24T22:15:02.470Z,3.60
2023-05-24T22:17:29.598Z,4.05
2023-05-24T22:19:56.456Z,4.25
2023-05-24T22:22:25.709Z,3.78
2023-05-24T22:24:52.511Z,4.22
2023-05-24T22:27:19.536Z,3.85
2023-05-24T22:29:46.764Z,3.75
2023-05-24T22:32:15.083Z,3.88
2023-05-24T22:34:42.001Z,4.18
2023-05-24T22:37:08.717Z,4.38
2023-05-24T22:39:35.715Z,4.60
2023-05-24T22:42:02.797Z,3.78
2023-05-24T22:44:31.972Z,3.88
2023-05-24T22:46:58.951Z,3.92
2023-05-24T22:49:29.618Z,3.80
2023-05-24T22:51:59.112Z,3.97
2023-05-24T22:54:26.425Z,4.50
2023-05-24T22:56:53.175Z,4.78
2023-05-24T22:59:19.968Z,4.47
2023-05-24T23:01:46.851Z,4.47
2023-05-24T23:04:21.090Z,4.80
2023-05-24T23:06:49.463Z,5.13
2023-05-24T23:09:17.824Z,4.43
2023-05-24T23:11:44.526Z,4.82
2023-05-24T23:14:11.619Z,4.47
2023-05-24T23:16:46.130Z,4.75
2023-05-24T23:19:20.460Z,4.47
2023-05-24T23:21:47.584Z,4.72
2023-05-24T23:24:16.811Z,5.22
2023-05-24T23:26:43.861Z,5.43
2023-05-24T23:29:14.677Z,4.65
2023-05-24T23:31:41.810Z,4.50
2023-05-24T23:34:11.355Z,4.97
2023-05-24T23:36:40.365Z,4.65
2023-05-24T23:39:10.990Z,4.55
2023-05-24T23:41:37.962Z,5.05
2023-05-24T23:44:04.725Z,4.43
2023-05-24T23:46:31.434Z,5.22
2023-05-24T23:48:58.328Z,5.45
2023-05-24T23:51:25.192Z,4.85
2023-05-24T23:53:53.319Z,5.30
2023-05-24T23:56:20.415Z,4.22
2023-05-24T23:58:47.161Z,4.80
